Terminal Aerodrome Forecast
Issued by NWS

Home | Current Version | Previous Version | Text Only | Print | Product List | Glossary On
Versions: 1 2 3 4 5 6 7 8 9 10 11 12 13 14 15 16
000
FTUS45 KABQ 271734
TAFLVS
TAF
KLVS 271734Z 2718/2818 21011KT P6SM SCT080
     FM272000 22012G20KT P6SM VCSH BKN080
     FM272200 21012G22KT P6SM VCTS OVC070CB
      TEMPO 2722/2724 VRB25G40KT TSRA OVC050CB
     FM280100 18010KT P6SM VCSH OVC060
     FM280400 19008KT P6SM BKN080
     FM281200 20005KT P6SM SCT100=

USA.gov is the U.S. government's official web portal to all federal, state and local government web resources and services.